Time;durP1;ratioP1;P1;durP2;ratioP2;P2;SDS_P1;SDS_P2;PMS_P1;PMS_P2;Temp;Humidity;BMP_temperature;BMP_pressure;BME280_temperature;BME280_humidity;BME280_pressure;Samples;Min_cycle;Max_cycle;Signal;HPM_P1;HPM_P2
2021/12/12 00:01:31;;;;;;;6.83;6.13;;;3.60;99.90;;;;;;6178947;23;20478;-87
2021/12/12 00:04:10;;;;;;;6.77;6.10;;;3.60;99.90;;;;;;6128549;23;20915;-87
2021/12/12 00:06:40;;;;;;;7.50;6.27;;;3.60;99.90;;;;;;6178460;23;20398;-87
2021/12/12 00:09:13;;;;;;;9.83;7.27;;;3.60;99.90;;;;;;6180088;23;20762;-86
2021/12/12 00:11:40;;;;;;;9.77;7.50;;;3.60;99.90;;;;;;6173768;23;20872;-87
2021/12/12 00:14:30;;;;;;;9.33;7.20;;;3.60;99.90;;;;;;6179841;23;20440;-87
2021/12/12 00:16:57;;;;;;;5.67;5.03;;;3.60;99.90;;;;;;6164916;23;20442;-87
2021/12/12 00:19:24;;;;;;;5.83;5.10;;;3.60;99.90;;;;;;6178781;23;20441;-87
2021/12/12 00:21:54;;;;;;;4.20;3.83;;;3.70;99.90;;;;;;6177347;23;20383;-87
2021/12/12 00:24:20;;;;;;;4.33;3.93;;;3.70;99.90;;;;;;6177355;23;20423;-86
2021/12/12 00:26:48;;;;;;;4.50;4.10;;;3.80;99.90;;;;;;6171665;23;20984;-86
2021/12/12 00:29:23;;;;;;;5.80;4.27;;;3.70;99.90;;;;;;6203744;23;20385;-86
2021/12/12 00:31:51;;;;;;;5.77;4.30;;;3.70;99.90;;;;;;6177131;23;20390;-86
2021/12/12 00:34:18;;;;;;;6.27;4.17;;;3.70;99.90;;;;;;6178029;23;20451;-86
2021/12/12 00:36:44;;;;;;;5.23;4.27;;;3.70;99.90;;;;;;6177693;23;20392;-87
2021/12/12 00:39:19;;;;;;;5.17;4.77;;;3.70;99.90;;;;;;6178258;23;20400;-87
2021/12/12 00:41:57;;;;;;;6.40;4.40;;;3.70;99.90;;;;;;6177348;23;20186;-87
2021/12/12 00:44:25;;;;;;;5.10;4.20;;;3.70;99.90;;;;;;6178717;23;20399;-86
2021/12/12 00:46:52;;;;;;;4.37;3.97;;;3.80;99.90;;;;;;6177940;23;20380;-86
2021/12/12 00:49:18;;;;;;;5.40;4.20;;;3.80;99.90;;;;;;6177874;23;20451;-86
2021/12/12 00:51:46;;;;;;;6.17;4.73;;;3.80;99.90;;;;;;6177851;23;20425;-87
2021/12/12 00:54:13;;;;;;;4.80;4.40;;;3.70;99.90;;;;;;6206104;23;20505;-87
2021/12/12 00:56:40;;;;;;;4.83;4.33;;;3.80;99.90;;;;;;6179125;23;20391;-87
2021/12/12 00:59:06;;;;;;;6.30;4.00;;;3.80;99.90;;;;;;6178868;23;20511;-87
2021/12/12 01:01:39;;;;;;;4.83;4.40;;;3.80;99.90;;;;;;6178213;23;20467;-86
2021/12/12 01:04:17;;;;;;;5.93;4.63;;;3.80;99.90;;;;;;6178364;23;20765;-87
2021/12/12 01:06:45;;;;;;;4.20;3.80;;;3.80;99.90;;;;;;6175098;23;20400;-87
2021/12/12 01:09:15;;;;;;;4.40;4.00;;;3.80;99.90;;;;;;6177186;23;20446;-86
2021/12/12 01:11:47;;;;;;;4.70;4.23;;;3.80;99.90;;;;;;6180534;23;20405;-87
2021/12/12 01:14:24;;;;;;;5.30;4.40;;;3.70;99.90;;;;;;6180489;23;20444;-87
2021/12/12 01:17:03;;;;;;;4.90;4.37;;;3.60;99.90;;;;;;6180979;23;20725;-87
2021/12/12 01:19:33;;;;;;;4.77;4.37;;;3.60;99.90;;;;;;6179496;23;20444;-87
2021/12/12 01:22:04;;;;;;;5.40;4.63;;;3.60;99.90;;;;;;6180958;23;20390;-87
2021/12/12 01:24:35;;;;;;;5.30;4.70;;;3.70;99.90;;;;;;6179511;23;20412;-86
2021/12/12 01:27:03;;;;;;;4.93;4.40;;;3.80;99.90;;;;;;6179640;23;20409;-86
2021/12/12 01:29:29;;;;;;;5.27;4.60;;;3.70;99.90;;;;;;6179518;23;20401;-86
2021/12/12 01:31:59;;;;;;;5.37;4.50;;;3.70;99.90;;;;;;6180444;23;20400;-86
2021/12/12 01:34:29;;;;;;;5.83;4.50;;;3.80;99.90;;;;;;6179913;23;20450;-86
2021/12/12 01:38:50;;;;;;;5.57;5.07;;;3.70;99.90;;;;;;6180453;23;20391;-86
2021/12/12 01:40:17;;;;;;;5.87;4.67;;;3.70;99.90;;;;;;6203567;23;20390;-87
2021/12/12 01:42:52;;;;;;;4.90;4.40;;;3.80;99.90;;;;;;6180175;23;20417;-86
2021/12/12 01:45:32;;;;;;;5.27;4.70;;;3.70;99.90;;;;;;6179657;23;20398;-87
2021/12/12 01:48:26;;;;;;;4.60;4.10;;;3.80;99.90;;;;;;6180758;23;20783;-87
2021/12/12 01:50:56;;;;;;;5.77;5.20;;;3.80;99.90;;;;;;6179430;23;20398;-87
2021/12/12 01:53:26;;;;;;;5.30;4.10;;;3.70;99.90;;;;;;6179102;23;20492;-87
2021/12/12 01:56:23;;;;;;;5.23;4.73;;;3.70;99.90;;;;;;6181308;23;20477;-87
2021/12/12 01:58:52;;;;;;;5.60;4.90;;;3.70;99.90;;;;;;6157083;23;20403;-87
2021/12/12 02:01:48;;;;;;;6.40;4.20;;;3.70;99.90;;;;;;6180053;23;20384;-87
2021/12/12 02:04:20;;;;;;;5.20;4.67;;;3.60;99.90;;;;;;6177746;23;20420;-87
2021/12/12 02:06:49;;;;;;;5.10;4.60;;;3.70;99.90;;;;;;6180505;23;21156;-87
2021/12/12 02:09:15;;;;;;;5.47;4.97;;;3.70;99.90;;;;;;6179369;23;20403;-87
2021/12/12 02:11:44;;;;;;;4.93;4.43;;;3.70;99.90;;;;;;6180574;23;20434;-86
2021/12/12 02:14:14;;;;;;;5.00;4.50;;;3.70;99.90;;;;;;6180115;23;20485;-87
2021/12/12 02:16:49;;;;;;;5.70;4.50;;;3.60;99.90;;;;;;6180265;23;20395;-89
2021/12/12 02:19:18;;;;;;;5.70;4.93;;;3.60;99.90;;;;;;6181227;23;20402;-86
2021/12/12 02:22:19;;;;;;;7.07;5.23;;;3.60;99.90;;;;;;6181338;23;20458;-87
2021/12/12 02:35:47;;;;;;;7.40;5.60;;;3.50;99.90;;;;;;6208294;23;20485;-86
2021/12/12 02:38:18;;;;;;;5.70;4.70;;;3.50;99.90;;;;;;6181231;23;20394;-87
2021/12/12 02:40:53;;;;;;;6.00;4.77;;;3.60;99.90;;;;;;6179547;23;20438;-86
2021/12/12 02:43:22;;;;;;;4.73;4.33;;;3.60;99.90;;;;;;6181351;23;20399;-86
2021/12/12 02:45:51;;;;;;;4.47;4.07;;;3.60;99.90;;;;;;6181099;23;20474;-86
2021/12/12 02:48:20;;;;;;;5.97;5.00;;;3.60;99.90;;;;;;6180530;23;21011;-86
2021/12/12 02:50:51;;;;;;;5.60;4.43;;;3.60;99.90;;;;;;6179975;23;20387;-86
2021/12/12 02:53:48;;;;;;;5.70;4.87;;;3.60;99.90;;;;;;6179450;23;20443;-86
2021/12/12 02:56:18;;;;;;;7.30;5.60;;;3.60;99.90;;;;;;6174744;23;20394;-86
2021/12/12 02:58:45;;;;;;;5.47;4.60;;;3.60;99.90;;;;;;6180192;23;20396;-87
2021/12/12 03:01:34;;;;;;;5.77;4.67;;;3.60;99.90;;;;;;6180147;23;20399;-87
2021/12/12 03:04:00;;;;;;;5.90;4.67;;;3.50;99.90;;;;;;6159421;23;20471;-87
2021/12/12 03:06:33;;;;;;;6.20;5.30;;;3.60;99.90;;;;;;6177467;23;20490;-86
2021/12/12 03:09:11;;;;;;;7.53;4.70;;;3.60;99.90;;;;;;6179246;23;20779;-87
2021/12/12 03:11:37;;;;;;;4.80;4.27;;;3.60;99.90;;;;;;6179670;23;20777;-86
2021/12/12 03:14:04;;;;;;;5.10;4.60;;;3.70;99.90;;;;;;6180131;23;20447;-86
2021/12/12 03:16:30;;;;;;;5.30;4.80;;;3.60;99.90;;;;;;6179182;23;20399;-86
2021/12/12 03:18:56;;;;;;;5.70;5.03;;;3.60;99.90;;;;;;6180541;23;20383;-87
2021/12/12 03:21:32;;;;;;;5.37;4.73;;;3.50;99.90;;;;;;6179880;23;20387;-86
2021/12/12 03:24:04;;;;;;;4.60;4.20;;;3.60;99.90;;;;;;6179105;23;20406;-86
2021/12/12 03:26:31;;;;;;;4.60;4.20;;;3.50;99.90;;;;;;6178583;23;20423;-87
2021/12/12 03:28:59;;;;;;;8.20;5.23;;;3.50;99.90;;;;;;6178695;23;20395;-87
2021/12/12 03:31:30;;;;;;;5.43;4.80;;;3.50;99.90;;;;;;6180023;23;20461;-87
2021/12/12 03:33:56;;;;;;;6.50;5.43;;;3.40;99.90;;;;;;6178771;23;20451;-86
2021/12/12 03:36:24;;;;;;;6.10;4.80;;;3.40;99.90;;;;;;6178858;23;21415;-86
2021/12/12 03:38:54;;;;;;;4.80;4.27;;;3.40;99.90;;;;;;6180379;23;20395;-87
2021/12/12 03:41:25;;;;;;;7.00;5.33;;;3.30;99.90;;;;;;6177123;23;20416;-87
2021/12/12 03:43:53;;;;;;;5.77;4.00;;;3.40;99.90;;;;;;6179262;23;20890;-87
2021/12/12 03:46:19;;;;;;;6.30;3.70;;;3.40;99.90;;;;;;6180328;23;20407;-87
2021/12/12 03:48:45;;;;;;;4.27;3.57;;;3.40;99.90;;;;;;6178525;23;20688;-87
2021/12/12 03:51:13;;;;;;;4.27;3.57;;;3.20;99.90;;;;;;6178284;23;20517;-86
2021/12/12 03:53:39;;;;;;;5.97;4.33;;;3.10;99.90;;;;;;6178955;23;20471;-87
2021/12/12 03:56:07;;;;;;;5.53;3.67;;;3.00;99.90;;;;;;6180035;23;20392;-87
2021/12/12 03:58:33;;;;;;;4.63;3.93;;;2.80;99.90;;;;;;6178977;23;20401;-87
2021/12/12 04:01:01;;;;;;;3.97;3.67;;;2.70;99.90;;;;;;6179391;23;20443;-87
2021/12/12 04:03:27;;;;;;;5.20;3.80;;;2.60;99.90;;;;;;6179185;23;20407;-86
2021/12/12 04:05:58;;;;;;;8.80;3.80;;;2.70;99.90;;;;;;6180165;23;20391;-86
2021/12/12 04:08:40;;;;;;;5.87;4.30;;;2.80;99.90;;;;;;6178949;23;20398;-87
2021/12/12 04:11:14;;;;;;;5.83;4.47;;;2.80;99.90;;;;;;6179294;23;20415;-87
2021/12/12 04:13:42;;;;;;;5.70;4.10;;;2.80;99.90;;;;;;6179563;23;20443;-87
2021/12/12 04:16:08;;;;;;;4.63;4.17;;;2.80;99.90;;;;;;6178985;23;20383;-86
2021/12/12 04:18:34;;;;;;;4.60;4.10;;;3.00;99.90;;;;;;6180031;23;22032;-87
2021/12/12 04:21:00;;;;;;;4.80;3.80;;;3.10;99.90;;;;;;6205882;23;20687;-86
2021/12/12 04:23:27;;;;;;;4.80;3.90;;;3.00;99.90;;;;;;6205614;23;20383;-86
2021/12/12 04:25:54;;;;;;;4.80;4.40;;;2.80;99.90;;;;;;6179618;23;20441;-87
2021/12/12 04:28:20;;;;;;;4.47;4.07;;;2.80;99.90;;;;;;6179365;23;20418;-87
2021/12/12 04:30:46;;;;;;;5.13;4.27;;;2.90;99.90;;;;;;6180893;23;20698;-87
2021/12/12 04:33:13;;;;;;;4.00;3.70;;;2.80;99.90;;;;;;6179671;23;20528;-87
2021/12/12 04:35:39;;;;;;;4.07;3.73;;;2.70;99.90;;;;;;6180490;23;20945;-87
2021/12/12 04:38:05;;;;;;;7.77;5.60;;;2.60;99.90;;;;;;6180621;23;20399;-87
2021/12/12 04:40:34;;;;;;;4.30;3.90;;;2.80;99.90;;;;;;6179874;23;20472;-87
2021/12/12 04:43:01;;;;;;;4.70;4.07;;;2.70;99.90;;;;;;6178905;23;20410;-87
2021/12/12 04:45:47;;;;;;;4.43;3.77;;;2.50;99.90;;;;;;6182080;23;20383;-87
2021/12/12 04:51:42;;;;;;;4.03;3.60;;;2.30;99.90;;;;;;6207113;23;20501;-88
2021/12/12 04:54:11;;;;;;;6.40;3.60;;;2.10;99.90;;;;;;6171100;23;20466;-87
2021/12/12 04:57:01;;;;;;;4.13;3.73;;;2.10;99.90;;;;;;6181345;23;20397;-87
2021/12/12 04:59:31;;;;;;;4.43;3.80;;;2.00;99.90;;;;;;6181735;23;20406;-86
2021/12/12 05:02:13;;;;;;;4.27;3.40;;;1.80;99.90;;;;;;6181504;23;20397;-86
2021/12/12 05:05:09;;;;;;;5.27;3.83;;;1.80;99.90;;;;;;6181145;23;20395;-86
2021/12/12 05:07:42;;;;;;;5.00;3.97;;;1.70;99.90;;;;;;6175562;23;20433;-86
2021/12/12 05:10:22;;;;;;;5.90;3.63;;;1.60;99.90;;;;;;6179781;23;20402;-87
2021/12/12 05:13:06;;;;;;;4.00;3.60;;;1.50;99.90;;;;;;6181262;23;20434;-87
2021/12/12 05:15:37;;;;;;;4.23;3.60;;;1.30;99.90;;;;;;6181108;23;20413;-87
2021/12/12 05:18:29;;;;;;;4.20;3.60;;;1.20;99.90;;;;;;6180338;23;20429;-87
2021/12/12 05:21:02;;;;;;;4.43;4.00;;;1.10;99.90;;;;;;6168040;23;20774;-87
2021/12/12 05:23:30;;;;;;;5.57;4.20;;;1.00;99.90;;;;;;6180269;23;20402;-86
2021/12/12 05:26:12;;;;;;;4.73;4.27;;;0.90;99.90;;;;;;6179819;23;20750;-86
2021/12/12 05:28:43;;;;;;;5.23;3.83;;;0.90;99.90;;;;;;6179570;23;20444;-86
2021/12/12 05:31:11;;;;;;;4.60;3.73;;;0.90;99.90;;;;;;6181189;23;20627;-86
2021/12/12 05:33:38;;;;;;;3.60;3.30;;;0.90;99.90;;;;;;6179496;23;20437;-85
2021/12/12 05:36:08;;;;;;;4.37;3.97;;;0.80;99.90;;;;;;6180673;23;20444;-85
2021/12/12 05:38:34;;;;;;;4.60;4.20;;;0.70;99.90;;;;;;6181160;23;20428;-85
2021/12/12 05:41:00;;;;;;;4.37;3.70;;;0.80;99.90;;;;;;6180079;23;20395;-86
2021/12/12 05:43:28;;;;;;;4.00;3.70;;;0.80;99.90;;;;;;6181743;23;20611;-86
2021/12/12 05:45:54;;;;;;;4.47;4.10;;;0.80;99.90;;;;;;6181312;23;20395;-86
2021/12/12 05:48:21;;;;;;;7.03;3.90;;;0.80;99.90;;;;;;6181281;23;21258;-86
2021/12/12 05:50:49;;;;;;;3.93;3.40;;;0.70;99.90;;;;;;6181124;23;20394;-86
2021/12/12 05:53:15;;;;;;;3.40;3.10;;;0.70;99.90;;;;;;6180430;23;20435;-86
2021/12/12 05:55:42;;;;;;;5.77;3.90;;;0.70;99.90;;;;;;6181036;23;20868;-86
2021/12/12 05:58:10;;;;;;;3.53;3.23;;;0.60;99.90;;;;;;6180418;23;20489;-86
2021/12/12 06:00:44;;;;;;;4.93;3.40;;;0.50;99.90;;;;;;6181178;23;20405;-86
2021/12/12 06:03:14;;;;;;;4.60;3.80;;;0.50;99.90;;;;;;6181392;23;20431;-86
2021/12/12 06:05:40;;;;;;;6.27;4.30;;;0.40;99.90;;;;;;6181692;23;20454;-86
2021/12/12 06:08:07;;;;;;;4.90;4.20;;;0.40;99.90;;;;;;6180713;23;20400;-86
2021/12/12 06:10:36;;;;;;;5.17;3.93;;;0.40;99.90;;;;;;6181530;23;20725;-86
2021/12/12 06:13:03;;;;;;;5.07;4.00;;;0.40;99.90;;;;;;6179688;23;20960;-86
2021/12/12 06:15:30;;;;;;;4.50;4.10;;;0.40;99.90;;;;;;6181885;23;20477;-86
2021/12/12 06:17:57;;;;;;;6.50;3.67;;;0.40;99.90;;;;;;6180820;23;20870;-85
2021/12/12 06:20:24;;;;;;;4.90;3.63;;;0.40;99.90;;;;;;6180969;23;20474;-86
2021/12/12 06:22:53;;;;;;;4.90;4.37;;;0.40;99.90;;;;;;6180254;23;20432;-86
2021/12/12 06:25:19;;;;;;;4.37;3.97;;;0.40;99.90;;;;;;6181450;23;20931;-86
2021/12/12 06:27:44;;;;;;;4.80;3.90;;;0.30;99.90;;;;;;6180483;23;20414;-86
2021/12/12 06:30:14;;;;;;;7.00;4.40;;;0.20;99.90;;;;;;6179391;23;20164;-86
2021/12/12 06:32:42;;;;;;;5.63;4.83;;;0.20;99.90;;;;;;6181097;23;20171;-87
2021/12/12 06:35:09;;;;;;;6.03;4.83;;;0.20;99.90;;;;;;6180293;23;20544;-86
2021/12/12 06:37:35;;;;;;;5.40;4.57;;;0.20;99.90;;;;;;6180084;23;20408;-87
2021/12/12 06:40:05;;;;;;;4.50;4.10;;;0.20;99.90;;;;;;6181887;23;20409;-87
2021/12/12 06:42:31;;;;;;;6.17;5.30;;;0.20;99.90;;;;;;6180743;23;20514;-87
2021/12/12 06:44:57;;;;;;;5.73;5.13;;;0.20;99.90;;;;;;6179768;23;20406;-86
2021/12/12 06:47:22;;;;;;;5.33;3.90;;;0.10;99.90;;;;;;6180979;23;20395;-87
2021/12/12 06:49:49;;;;;;;5.93;4.73;;;0.10;99.90;;;;;;6178811;23;20169;-87
2021/12/12 06:52:16;;;;;;;5.27;4.37;;;0.10;99.90;;;;;;6179679;23;20170;-87
2021/12/12 06:54:42;;;;;;;6.80;4.70;;;0.10;99.90;;;;;;6177558;23;20443;-87
2021/12/12 06:57:12;;;;;;;4.43;4.03;;;0.20;99.90;;;;;;6177591;23;20393;-86
2021/12/12 06:59:39;;;;;;;5.17;3.93;;;0.20;99.90;;;;;;6176869;23;20404;-86
2021/12/12 07:02:09;;;;;;;5.90;4.70;;;0.20;99.90;;;;;;6178273;23;20392;-86
2021/12/12 07:04:36;;;;;;;5.60;4.90;;;0.10;99.90;;;;;;6179871;23;20693;-86
2021/12/12 07:07:04;;;;;;;5.40;4.10;;;0.00;99.90;;;;;;6178104;23;20486;-86
2021/12/12 07:09:31;;;;;;;5.43;4.93;;;0.00;99.90;;;;;;6181475;23;20404;-86
2021/12/12 07:12:00;;;;;;;5.43;4.70;;;0.00;99.90;;;;;;6179919;23;20395;-86
2021/12/12 07:14:26;;;;;;;6.50;5.03;;;0.00;99.90;;;;;;6179341;23;20445;-86
2021/12/12 07:16:55;;;;;;;6.70;5.00;;;0.10;99.90;;;;;;6180127;23;20467;-86
2021/12/12 07:19:22;;;;;;;6.63;5.60;;;0.10;99.90;;;;;;6178012;23;20502;-87
2021/12/12 07:21:49;;;;;;;6.40;5.80;;;0.10;99.90;;;;;;6177824;23;20424;-87
2021/12/12 07:24:17;;;;;;;5.97;5.27;;;0.10;99.90;;;;;;6178380;23;20395;-88
2021/12/12 07:26:43;;;;;;;6.60;4.87;;;0.10;99.90;;;;;;6176818;23;20401;-87
2021/12/12 07:29:10;;;;;;;7.47;6.13;;;0.10;99.90;;;;;;6178054;23;20393;-87
2021/12/12 07:31:39;;;;;;;8.87;5.40;;;0.10;99.90;;;;;;6178406;23;20413;-87
2021/12/12 07:34:09;;;;;;;8.37;5.63;;;0.20;99.90;;;;;;6177948;23;20537;-87
2021/12/12 07:36:45;;;;;;;6.57;5.40;;;0.30;99.90;;;;;;6180375;23;20389;-87
2021/12/12 07:39:13;;;;;;;6.30;5.70;;;0.50;99.90;;;;;;6178581;23;20396;-87
2021/12/12 07:41:41;;;;;;;7.60;6.90;;;0.50;99.90;;;;;;6177787;23;20767;-88
2021/12/12 07:44:09;;;;;;;8.27;6.97;;;0.70;99.90;;;;;;6179612;23;20426;-88
2021/12/12 07:46:35;;;;;;;8.40;6.50;;;0.80;99.90;;;;;;6180235;23;20436;-88
2021/12/12 07:49:02;;;;;;;6.10;5.33;;;0.80;99.90;;;;;;6178429;23;20412;-88
2021/12/12 07:51:29;;;;;;;8.30;6.30;;;0.90;99.90;;;;;;6180117;23;20475;-88
2021/12/12 07:54:03;;;;;;;8.10;6.27;;;1.00;99.90;;;;;;6178755;23;20586;-88
2021/12/12 07:56:32;;;;;;;6.97;6.27;;;1.00;99.90;;;;;;6176600;23;21301;-87
2021/12/12 07:58:59;;;;;;;6.67;5.70;;;1.00;99.90;;;;;;6179613;23;20707;-88
2021/12/12 08:01:26;;;;;;;5.63;5.07;;;1.10;99.90;;;;;;6178844;23;20435;-89
2021/12/12 08:03:54;;;;;;;6.87;6.13;;;1.30;99.90;;;;;;6178496;23;20953;-88
2021/12/12 08:06:20;;;;;;;11.23;7.97;;;1.40;99.90;;;;;;6174877;23;20404;-88
2021/12/12 08:08:47;;;;;;;7.07;5.80;;;1.40;99.90;;;;;;6178900;23;20388;-88
2021/12/12 08:11:19;;;;;;;8.33;6.20;;;1.50;99.90;;;;;;6178270;23;20457;-89
2021/12/12 08:13:46;;;;;;;6.20;5.60;;;1.50;99.90;;;;;;6178587;23;20438;-87
2021/12/12 08:16:14;;;;;;;7.10;5.50;;;1.60;99.90;;;;;;6179329;23;20432;-89
2021/12/12 08:18:40;;;;;;;6.90;5.30;;;1.80;99.90;;;;;;6179418;23;20736;-88
2021/12/12 08:21:06;;;;;;;5.70;5.10;;;2.00;99.90;;;;;;6182818;23;20489;-87
2021/12/12 08:23:35;;;;;;;5.57;4.43;;;2.10;99.90;;;;;;6182286;23;20903;-88
2021/12/12 08:26:02;;;;;;;5.40;4.90;;;2.30;99.90;;;;;;6183601;23;20398;-88
2021/12/12 08:28:30;;;;;;;5.00;4.50;;;2.60;99.90;;;;;;6182862;23;20391;-88
2021/12/12 08:30:56;;;;;;;5.30;4.80;;;3.60;99.90;;;;;;6183885;23;20395;-89
2021/12/12 08:33:23;;;;;;;6.13;4.50;;;4.90;99.90;;;;;;6183749;23;20446;-88
2021/12/12 08:35:50;;;;;;;4.30;3.73;;;6.20;99.90;;;;;;6183217;23;20390;-88
2021/12/12 08:38:17;;;;;;;4.90;4.37;;;6.90;99.90;;;;;;6182157;23;20868;-90
2021/12/12 08:40:47;;;;;;;5.80;3.97;;;6.50;99.90;;;;;;6180695;23;20535;-89
2021/12/12 08:43:19;;;;;;;5.00;4.53;;;5.90;99.90;;;;;;6175294;23;20400;-87
2021/12/12 08:45:48;;;;;;;5.63;4.70;;;5.40;99.90;;;;;;6178931;23;20405;-86
2021/12/12 08:48:16;;;;;;;6.20;5.00;;;4.70;99.90;;;;;;6180956;23;20444;-86
2021/12/12 08:50:45;;;;;;;5.20;4.70;;;4.30;99.90;;;;;;6180149;23;20405;-87
2021/12/12 08:53:11;;;;;;;8.70;7.00;;;3.80;99.90;;;;;;6178858;23;20438;-87
2021/12/12 08:55:43;;;;;;;7.00;4.97;;;3.70;99.90;;;;;;6180477;23;20444;-87
2021/12/12 08:58:16;;;;;;;4.60;4.20;;;3.60;99.90;;;;;;6181803;23;20393;-87
2021/12/12 09:00:45;;;;;;;4.90;4.50;;;3.50;99.90;;;;;;6179925;23;20828;-86
2021/12/12 09:03:20;;;;;;;4.93;4.20;;;3.50;99.90;;;;;;6180649;23;20787;-85
2021/12/12 09:05:46;;;;;;;4.70;4.30;;;3.60;99.90;;;;;;6180383;23;20433;-86
2021/12/12 09:08:36;;;;;;;6.40;4.90;;;3.70;99.90;;;;;;6180800;23;20486;-85
2021/12/12 09:11:07;;;;;;;5.07;4.17;;;3.70;99.90;;;;;;6180682;23;20461;-86
2021/12/12 09:13:39;;;;;;;4.20;3.80;;;3.70;99.90;;;;;;6181742;23;20750;-86
2021/12/12 09:16:17;;;;;;;4.30;3.90;;;3.80;99.90;;;;;;6181546;23;20398;-86
2021/12/12 09:18:54;;;;;;;5.83;4.10;;;3.80;99.90;;;;;;6180758;23;20406;-86
2021/12/12 09:21:35;;;;;;;4.63;4.10;;;3.60;99.90;;;;;;6182611;23;20394;-86
2021/12/12 09:24:11;;;;;;;5.20;4.77;;;3.70;99.90;;;;;;6183313;23;20456;-86
2021/12/12 09:26:44;;;;;;;5.63;5.03;;;3.70;99.90;;;;;;6180084;23;20450;-86
2021/12/12 09:29:19;;;;;;;6.20;4.70;;;3.60;99.90;;;;;;6180992;23;20390;-89
2021/12/12 09:32:10;;;;;;;4.33;3.93;;;3.60;99.90;;;;;;6181930;23;20399;-86
2021/12/12 09:35:08;;;;;;;4.90;4.37;;;3.70;99.90;;;;;;6152912;23;20442;-89
2021/12/12 09:38:06;;;;;;;5.00;4.30;;;3.90;99.90;;;;;;6167047;23;20902;-87
2021/12/12 09:41:09;;;;;;;15.33;13.70;;;4.00;99.90;;;;;;6174021;23;20411;-86
2021/12/12 09:44:04;;;;;;;5.67;5.03;;;3.90;99.90;;;;;;6172396;23;20399;-86
2021/12/12 09:47:30;;;;;;;5.07;4.57;;;4.00;99.90;;;;;;6113171;23;20430;-86
2021/12/12 09:53:29;;;;;;;4.47;4.07;;;3.90;99.90;;;;;;6200563;23;20810;-87
2021/12/12 09:56:06;;;;;;;3.27;2.97;;;3.70;99.90;;;;;;6171689;23;20701;-87
2021/12/12 09:58:34;;;;;;;3.73;3.33;;;3.90;99.90;;;;;;6172997;23;20431;-87
2021/12/12 10:01:05;;;;;;;3.37;3.07;;;4.10;99.90;;;;;;6201795;23;20729;-88
2021/12/12 10:03:49;;;;;;;4.37;3.97;;;4.40;99.90;;;;;;6150247;23;20711;-87
2021/12/12 10:06:21;;;;;;;4.63;4.23;;;4.40;99.90;;;;;;6175960;23;20418;-86
2021/12/12 10:09:08;;;;;;;3.90;3.60;;;4.50;99.90;;;;;;6174718;23;20406;-86
2021/12/12 10:11:43;;;;;;;3.73;3.43;;;4.80;99.90;;;;;;6174705;23;20787;-87
2021/12/12 10:14:29;;;;;;;4.50;4.10;;;5.00;99.90;;;;;;6173872;23;20448;-86
2021/12/12 10:17:56;;;;;;;7.40;5.93;;;4.80;99.90;;;;;;6173583;23;20405;-87
2021/12/12 10:20:57;;;;;;;4.77;3.90;;;4.50;99.90;;;;;;6049520;23;20475;-89
2021/12/12 10:23:53;;;;;;;5.63;3.70;;;4.40;99.90;;;;;;6201708;23;20465;-88
2021/12/12 10:26:40;;;;;;;2.90;2.70;;;4.20;99.90;;;;;;6170019;23;20392;-88
2021/12/12 10:29:12;;;;;;;3.00;2.70;;;4.30;99.90;;;;;;6172468;23;20492;-88
2021/12/12 10:31:48;;;;;;;4.07;3.03;;;4.10;99.90;;;;;;6173357;23;20504;-87
2021/12/12 10:34:20;;;;;;;2.83;2.30;;;4.20;99.90;;;;;;6172643;23;20470;-87
2021/12/12 10:37:10;;;;;;;2.90;2.70;;;4.30;99.90;;;;;;6171983;23;20399;-87
2021/12/12 10:39:37;;;;;;;3.10;2.80;;;4.40;99.90;;;;;;6171159;23;20408;-88
2021/12/12 10:42:15;;;;;;;3.60;2.77;;;4.60;99.90;;;;;;6171726;23;20426;-88
2021/12/12 10:44:46;;;;;;;3.33;3.03;;;4.70;99.90;;;;;;6172146;23;20403;-88
2021/12/12 10:47:16;;;;;;;3.80;3.20;;;4.60;99.90;;;;;;6171150;23;20779;-87
2021/12/12 10:50:21;;;;;;;4.27;3.20;;;4.60;99.90;;;;;;6173492;23;20444;-89
2021/12/12 10:52:52;;;;;;;3.50;3.10;;;4.60;99.90;;;;;;6112097;23;20408;-87
2021/12/12 10:55:30;;;;;;;3.83;3.30;;;4.80;99.90;;;;;;6171631;23;20409;-88
2021/12/12 10:58:28;;;;;;;3.90;3.03;;;4.80;99.90;;;;;;6172535;23;20395;-89
2021/12/12 11:01:07;;;;;;;4.60;3.50;;;4.70;99.90;;;;;;6164041;23;20779;-88
2021/12/12 11:03:48;;;;;;;3.70;3.30;;;4.70;99.90;;;;;;6173059;23;21018;-90
2021/12/12 11:06:25;;;;;;;3.67;3.37;;;4.90;99.90;;;;;;6172242;23;20426;-88
2021/12/12 11:09:12;;;;;;;3.13;2.83;;;5.00;99.90;;;;;;6177668;23;20727;-86
2021/12/12 11:11:58;;;;;;;4.47;3.53;;;5.10;99.90;;;;;;6188825;23;20453;-88
2021/12/12 11:14:29;;;;;;;3.93;3.27;;;5.10;99.90;;;;;;6180721;23;20472;-88
2021/12/12 11:17:24;;;;;;;3.50;3.20;;;4.90;99.90;;;;;;6156748;23;20396;-87
2021/12/12 11:20:28;;;;;;;7.03;2.90;;;5.00;99.90;;;;;;6184955;23;20396;-89
2021/12/12 11:23:00;;;;;;;3.37;3.07;;;5.10;99.90;;;;;;6164693;23;20412;-87
2021/12/12 11:25:33;;;;;;;5.07;3.60;;;5.00;99.90;;;;;;6172965;23;20916;-88
2021/12/12 11:28:09;;;;;;;6.30;2.80;;;5.00;99.90;;;;;;6172878;23;20451;-89
2021/12/12 11:30:46;;;;;;;3.43;3.13;;;5.10;99.90;;;;;;6173823;23;20398;-83
2021/12/12 11:33:14;;;;;;;4.27;3.20;;;5.30;99.90;;;;;;6171774;23;20486;-89
2021/12/12 11:35:42;;;;;;;3.50;3.20;;;5.30;99.90;;;;;;6167552;23;20914;-87
2021/12/12 11:38:20;;;;;;;3.73;3.37;;;5.30;99.90;;;;;;6168883;23;20483;-89
2021/12/12 11:41:16;;;;;;;3.90;3.47;;;5.20;99.90;;;;;;6171963;23;20413;-88
2021/12/12 11:43:53;;;;;;;3.70;3.17;;;5.20;99.90;;;;;;6163776;23;20447;-87
2021/12/12 11:46:34;;;;;;;3.63;3.33;;;5.30;99.90;;;;;;6172774;23;20699;-88
2021/12/12 11:49:16;;;;;;;4.20;3.20;;;5.50;99.90;;;;;;6172075;23;20405;-87
2021/12/12 11:51:48;;;;;;;4.20;3.60;;;5.50;99.90;;;;;;6171820;23;20405;-87
2021/12/12 11:54:52;;;;;;;4.10;3.40;;;5.60;99.90;;;;;;6171031;23;20501;-87
2021/12/12 11:57:31;;;;;;;4.37;3.97;;;5.80;99.90;;;;;;6170550;23;20470;-86
2021/12/12 12:00:15;;;;;;;4.60;3.63;;;5.70;99.90;;;;;;6170954;23;20397;-86
2021/12/12 12:03:24;;;;;;;4.33;3.90;;;5.80;99.90;;;;;;6171652;23;20963;-86
2021/12/12 12:06:17;;;;;;;6.20;3.80;;;5.80;99.90;;;;;;6170982;23;20482;-86
2021/12/12 12:09:04;;;;;;;3.70;3.40;;;5.70;99.90;;;;;;6171653;23;20407;-87
2021/12/12 12:11:44;;;;;;;5.33;3.50;;;5.60;99.90;;;;;;6171113;23;20394;-87
2021/12/12 12:14:34;;;;;;;3.47;3.00;;;5.70;99.90;;;;;;6168363;23;20446;-87
2021/12/12 12:17:22;;;;;;;3.80;3.40;;;5.60;99.90;;;;;;6113949;23;21001;-87
2021/12/12 12:19:54;;;;;;;3.60;3.30;;;5.60;99.90;;;;;;6167605;23;20409;-87
2021/12/12 12:22:33;;;;;;;4.10;3.70;;;5.80;99.90;;;;;;6171267;23;20410;-86
2021/12/12 12:25:21;;;;;;;4.40;3.90;;;6.00;99.90;;;;;;6170504;23;20741;-87
2021/12/12 12:28:09;;;;;;;4.90;3.57;;;6.20;99.90;;;;;;6171660;23;20394;-87
2021/12/12 12:31:00;;;;;;;3.90;3.50;;;7.60;99.90;;;;;;6147553;23;20412;-87
2021/12/12 12:34:03;;;;;;;3.70;3.40;;;9.40;99.80;;;;;;6169877;23;20881;-89
2021/12/12 12:37:07;;;;;;;3.80;3.43;;;9.20;97.70;;;;;;6170953;23;20407;-86
2021/12/12 12:40:10;;;;;;;3.57;3.27;;;8.20;99.40;;;;;;6171546;23;20448;-87
2021/12/12 12:43:14;;;;;;;4.83;3.33;;;7.80;99.90;;;;;;6172801;23;20743;-89
2021/12/12 12:45:52;;;;;;;3.87;3.40;;;7.30;99.90;;;;;;6172589;23;20465;-88
2021/12/12 12:49:03;;;;;;;4.27;3.70;;;6.80;99.90;;;;;;6173322;23;20776;-88
2021/12/12 12:52:10;;;;;;;4.60;3.50;;;6.60;99.90;;;;;;6195430;23;20402;-88
2021/12/12 12:55:17;;;;;;;5.43;3.20;;;6.50;99.90;;;;;;6181618;23;20441;-88
2021/12/12 12:57:48;;;;;;;4.30;3.40;;;6.40;99.90;;;;;;6163596;23;20394;-88
2021/12/12 13:00:20;;;;;;;5.13;4.10;;;6.50;99.90;;;;;;6176674;23;20400;-87
2021/12/12 13:02:58;;;;;;;4.57;3.57;;;6.70;99.90;;;;;;6170279;23;20984;-88
2021/12/12 13:06:07;;;;;;;5.40;3.87;;;6.70;99.90;;;;;;6174235;23;20402;-88
2021/12/12 13:09:10;;;;;;;4.20;3.80;;;6.70;99.90;;;;;;6177780;23;20402;-89
2021/12/12 13:12:13;;;;;;;3.30;3.00;;;6.90;99.90;;;;;;6176686;23;20400;-88
2021/12/12 13:14:45;;;;;;;2.93;2.67;;;7.10;99.90;;;;;;6174190;23;20547;-89
2021/12/12 13:17:39;;;;;;;4.73;3.70;;;7.30;99.90;;;;;;6174753;23;20995;-88
2021/12/12 13:20:11;;;;;;;3.60;3.30;;;7.00;99.90;;;;;;6176233;23;20496;-88
2021/12/12 13:23:07;;;;;;;3.23;3.03;;;6.70;99.90;;;;;;6176270;23;21205;-89
2021/12/12 13:25:43;;;;;;;3.93;2.80;;;6.60;99.90;;;;;;6122715;23;20398;-89
2021/12/12 13:28:52;;;;;;;6.83;3.83;;;6.70;99.90;;;;;;6175448;23;20408;-89
2021/12/12 13:31:36;;;;;;;5.00;3.47;;;6.60;99.90;;;;;;6036445;23;20403;-89
2021/12/12 13:34:01;;;;;;;3.83;3.43;;;6.70;99.90;;;;;;6200054;23;20447;-89
2021/12/12 13:37:14;;;;;;;3.73;3.10;;;6.70;99.90;;;;;;6174332;23;21593;-89
2021/12/12 13:40:28;;;;;;;;;;;;;;;;;;;;;
2021/12/12 13:43:06;;;;;;;4.00;3.60;;;6.80;99.90;;;;;;6201776;23;20405;-89
2021/12/12 13:45:45;;;;;;;4.00;3.53;;;6.90;99.90;;;;;;6174805;23;20772;-91
2021/12/12 13:48:40;;;;;;;4.30;3.33;;;6.90;99.90;;;;;;6174057;23;20418;-91
2021/12/12 13:51:15;;;;;;;3.83;3.53;;;6.70;99.90;;;;;;6065474;23;20439;-90
2021/12/12 13:54:07;;;;;;;3.83;3.27;;;6.50;99.90;;;;;;6174179;23;20452;-90
2021/12/12 13:56:36;;;;;;;4.87;4.47;;;6.40;99.90;;;;;;6174028;23;20882;-90
2021/12/12 13:59:45;;;;;;;5.13;3.43;;;6.50;99.90;;;;;;6172424;23;20403;-91